sensor_id;sensor_type;location;lat;lon;timestamp;P1;durP1;ratioP1;P2;durP2;ratioP2
22476;SDS011;65006;51.698;-0.292;2023-08-01T00:01:29;6.85;;;2.40;;
22476;SDS011;65006;51.698;-0.292;2023-08-01T00:03:55;4.18;;;1.88;;
22476;SDS011;65006;51.698;-0.292;2023-08-01T00:06:21;9.45;;;2.13;;
22476;SDS011;65006;51.698;-0.292;2023-08-01T00:08:47;8.98;;;2.42;;
22476;SDS011;65006;51.698;-0.292;2023-08-01T00:11:13;6.90;;;2.17;;
22476;SDS011;65006;51.698;-0.292;2023-08-01T00:13:41;8.70;;;3.00;;
22476;SDS011;65006;51.698;-0.292;2023-08-01T00:16:08;8.65;;;2.60;;
22476;SDS011;65006;51.698;-0.292;2023-08-01T00:18:34;10.77;;;2.45;;
22476;SDS011;65006;51.698;-0.292;2023-08-01T00:21:00;10.55;;;2.55;;
22476;SDS011;65006;51.698;-0.292;2023-08-01T00:23:26;6.32;;;2.42;;
22476;SDS011;65006;51.698;-0.292;2023-08-01T00:25:52;10.65;;;2.60;;
22476;SDS011;65006;51.698;-0.292;2023-08-01T00:28:18;10.68;;;2.55;;
22476;SDS011;65006;51.698;-0.292;2023-08-01T00:30:44;12.57;;;2.88;;
22476;SDS011;65006;51.698;-0.292;2023-08-01T00:33:10;10.77;;;2.60;;
22476;SDS011;65006;51.698;-0.292;2023-08-01T00:35:36;6.75;;;3.10;;
22476;SDS011;65006;51.698;-0.292;2023-08-01T00:38:02;21.60;;;3.45;;
22476;SDS011;65006;51.698;-0.292;2023-08-01T00:40:32;10.98;;;2.42;;
22476;SDS011;65006;51.698;-0.292;2023-08-01T00:42:58;10.07;;;2.58;;
22476;SDS011;65006;51.698;-0.292;2023-08-01T00:45:27;7.90;;;2.13;;
22476;SDS011;65006;51.698;-0.292;2023-08-01T00:47:54;8.15;;;2.60;;
22476;SDS011;65006;51.698;-0.292;2023-08-01T00:50:20;8.95;;;2.38;;
22476;SDS011;65006;51.698;-0.292;2023-08-01T00:52:47;6.68;;;2.67;;
22476;SDS011;65006;51.698;-0.292;2023-08-01T00:55:14;6.50;;;2.65;;
22476;SDS011;65006;51.698;-0.292;2023-08-01T01:00:06;7.93;;;2.85;;
22476;SDS011;65006;51.698;-0.292;2023-08-01T01:02:32;10.90;;;1.98;;
22476;SDS011;65006;51.698;-0.292;2023-08-01T01:04:58;8.10;;;2.40;;
22476;SDS011;65006;51.698;-0.292;2023-08-01T01:07:24;6.63;;;2.50;;
22476;SDS011;65006;51.698;-0.292;2023-08-01T01:09:51;9.30;;;2.55;;
22476;SDS011;65006;51.698;-0.292;2023-08-01T01:12:17;7.40;;;2.30;;
22476;SDS011;65006;51.698;-0.292;2023-08-01T01:14:43;11.43;;;2.42;;
22476;SDS011;65006;51.698;-0.292;2023-08-01T01:17:09;9.50;;;2.17;;
22476;SDS011;65006;51.698;-0.292;2023-08-01T01:19:35;10.68;;;2.97;;
22476;SDS011;65006;51.698;-0.292;2023-08-01T01:22:02;11.15;;;2.60;;
22476;SDS011;65006;51.698;-0.292;2023-08-01T01:24:29;7.63;;;2.92;;
22476;SDS011;65006;51.698;-0.292;2023-08-01T01:26:56;9.55;;;3.22;;
22476;SDS011;65006;51.698;-0.292;2023-08-01T01:29:24;11.13;;;2.60;;
22476;SDS011;65006;51.698;-0.292;2023-08-01T01:31:50;9.20;;;2.55;;
22476;SDS011;65006;51.698;-0.292;2023-08-01T01:36:43;6.95;;;2.50;;
22476;SDS011;65006;51.698;-0.292;2023-08-01T01:39:09;12.75;;;3.50;;
22476;SDS011;65006;51.698;-0.292;2023-08-01T01:41:35;10.50;;;2.78;;
22476;SDS011;65006;51.698;-0.292;2023-08-01T01:44:01;9.60;;;2.97;;
22476;SDS011;65006;51.698;-0.292;2023-08-01T01:46:27;11.57;;;3.00;;
22476;SDS011;65006;51.698;-0.292;2023-08-01T01:48:53;12.63;;;3.05;;
22476;SDS011;65006;51.698;-0.292;2023-08-01T01:51:20;9.35;;;3.00;;
22476;SDS011;65006;51.698;-0.292;2023-08-01T01:53:46;8.70;;;2.58;;
22476;SDS011;65006;51.698;-0.292;2023-08-01T01:56:12;8.30;;;3.28;;
22476;SDS011;65006;51.698;-0.292;2023-08-01T01:58:38;8.20;;;2.88;;
22476;SDS011;65006;51.698;-0.292;2023-08-01T02:01:04;10.73;;;2.85;;
22476;SDS011;65006;51.698;-0.292;2023-08-01T02:03:30;5.53;;;2.85;;
22476;SDS011;65006;51.698;-0.292;2023-08-01T02:05:56;12.05;;;3.28;;
22476;SDS011;65006;51.698;-0.292;2023-08-01T02:08:22;10.57;;;3.40;;
22476;SDS011;65006;51.698;-0.292;2023-08-01T02:10:48;9.15;;;3.10;;
22476;SDS011;65006;51.698;-0.292;2023-08-01T02:13:14;13.02;;;3.35;;
22476;SDS011;65006;51.698;-0.292;2023-08-01T02:15:40;9.70;;;3.25;;
22476;SDS011;65006;51.698;-0.292;2023-08-01T02:18:06;10.77;;;3.45;;
22476;SDS011;65006;51.698;-0.292;2023-08-01T02:20:32;10.32;;;3.08;;
22476;SDS011;65006;51.698;-0.292;2023-08-01T02:22:58;10.55;;;2.97;;
22476;SDS011;65006;51.698;-0.292;2023-08-01T02:25:24;26.75;;;3.15;;
22476;SDS011;65006;51.698;-0.292;2023-08-01T02:27:50;12.45;;;3.28;;
22476;SDS011;65006;51.698;-0.292;2023-08-01T02:30:16;12.40;;;3.63;;
22476;SDS011;65006;51.698;-0.292;2023-08-01T02:32:42;13.90;;;2.95;;
22476;SDS011;65006;51.698;-0.292;2023-08-01T02:35:08;13.57;;;3.17;;
22476;SDS011;65006;51.698;-0.292;2023-08-01T02:37:34;9.02;;;2.75;;
22476;SDS011;65006;51.698;-0.292;2023-08-01T02:40:01;14.15;;;4.15;;
22476;SDS011;65006;51.698;-0.292;2023-08-01T02:42:27;11.07;;;3.35;;
22476;SDS011;65006;51.698;-0.292;2023-08-01T02:44:53;8.73;;;3.05;;
22476;SDS011;65006;51.698;-0.292;2023-08-01T02:47:19;14.05;;;3.50;;
22476;SDS011;65006;51.698;-0.292;2023-08-01T02:49:45;16.52;;;3.45;;
22476;SDS011;65006;51.698;-0.292;2023-08-01T02:52:11;8.40;;;3.00;;
22476;SDS011;65006;51.698;-0.292;2023-08-01T02:54:37;13.45;;;3.55;;
22476;SDS011;65006;51.698;-0.292;2023-08-01T02:57:03;10.80;;;2.80;;
22476;SDS011;65006;51.698;-0.292;2023-08-01T02:59:29;11.80;;;3.85;;
22476;SDS011;65006;51.698;-0.292;2023-08-01T03:01:58;16.17;;;3.45;;
22476;SDS011;65006;51.698;-0.292;2023-08-01T03:04:24;8.75;;;3.13;;
22476;SDS011;65006;51.698;-0.292;2023-08-01T03:06:50;9.68;;;2.83;;
22476;SDS011;65006;51.698;-0.292;2023-08-01T03:09:16;13.35;;;4.00;;
22476;SDS011;65006;51.698;-0.292;2023-08-01T03:11:42;14.82;;;3.67;;
22476;SDS011;65006;51.698;-0.292;2023-08-01T03:14:08;13.48;;;3.38;;
22476;SDS011;65006;51.698;-0.292;2023-08-01T03:16:34;19.08;;;3.42;;
22476;SDS011;65006;51.698;-0.292;2023-08-01T03:19:00;14.45;;;3.33;;
22476;SDS011;65006;51.698;-0.292;2023-08-01T03:21:33;6.97;;;2.70;;
22476;SDS011;65006;51.698;-0.292;2023-08-01T03:23:59;12.52;;;3.70;;
22476;SDS011;65006;51.698;-0.292;2023-08-01T03:26:25;15.52;;;3.30;;
22476;SDS011;65006;51.698;-0.292;2023-08-01T03:28:53;13.50;;;3.45;;
22476;SDS011;65006;51.698;-0.292;2023-08-01T03:31:20;14.23;;;3.38;;
22476;SDS011;65006;51.698;-0.292;2023-08-01T03:33:46;11.55;;;3.17;;
22476;SDS011;65006;51.698;-0.292;2023-08-01T03:36:12;13.38;;;2.95;;
22476;SDS011;65006;51.698;-0.292;2023-08-01T03:38:38;8.77;;;3.42;;
22476;SDS011;65006;51.698;-0.292;2023-08-01T03:41:04;11.38;;;3.30;;
22476;SDS011;65006;51.698;-0.292;2023-08-01T03:43:30;8.80;;;2.85;;
22476;SDS011;65006;51.698;-0.292;2023-08-01T03:45:56;10.57;;;3.28;;
22476;SDS011;65006;51.698;-0.292;2023-08-01T03:48:22;13.32;;;2.92;;
22476;SDS011;65006;51.698;-0.292;2023-08-01T03:50:48;10.07;;;3.22;;
22476;SDS011;65006;51.698;-0.292;2023-08-01T03:53:14;11.23;;;3.20;;
22476;SDS011;65006;51.698;-0.292;2023-08-01T03:55:40;14.98;;;3.63;;
22476;SDS011;65006;51.698;-0.292;2023-08-01T03:58:07;10.60;;;2.95;;
22476;SDS011;65006;51.698;-0.292;2023-08-01T04:00:33;13.85;;;3.08;;
22476;SDS011;65006;51.698;-0.292;2023-08-01T04:02:59;12.50;;;3.45;;
22476;SDS011;65006;51.698;-0.292;2023-08-01T04:05:26;13.98;;;2.92;;
22476;SDS011;65006;51.698;-0.292;2023-08-01T04:07:52;11.68;;;2.63;;
22476;SDS011;65006;51.698;-0.292;2023-08-01T04:10:20;15.82;;;3.42;;
22476;SDS011;65006;51.698;-0.292;2023-08-01T04:12:46;9.48;;;2.83;;
22476;SDS011;65006;51.698;-0.292;2023-08-01T04:15:12;7.10;;;3.05;;
22476;SDS011;65006;51.698;-0.292;2023-08-01T04:17:38;10.30;;;2.58;;
22476;SDS011;65006;51.698;-0.292;2023-08-01T04:20:04;6.90;;;2.28;;
22476;SDS011;65006;51.698;-0.292;2023-08-01T04:22:30;10.48;;;2.47;;
22476;SDS011;65006;51.698;-0.292;2023-08-01T04:24:56;10.05;;;2.25;;
22476;SDS011;65006;51.698;-0.292;2023-08-01T04:27:22;13.30;;;2.88;;
22476;SDS011;65006;51.698;-0.292;2023-08-01T04:29:48;9.25;;;2.80;;
22476;SDS011;65006;51.698;-0.292;2023-08-01T04:32:14;8.00;;;2.60;;
22476;SDS011;65006;51.698;-0.292;2023-08-01T04:34:41;13.10;;;2.55;;
22476;SDS011;65006;51.698;-0.292;2023-08-01T04:39:34;13.60;;;2.75;;
22476;SDS011;65006;51.698;-0.292;2023-08-01T04:42:00;6.78;;;2.55;;
22476;SDS011;65006;51.698;-0.292;2023-08-01T04:44:26;11.38;;;2.70;;
22476;SDS011;65006;51.698;-0.292;2023-08-01T04:46:52;7.97;;;2.30;;
22476;SDS011;65006;51.698;-0.292;2023-08-01T04:49:18;9.60;;;2.38;;
22476;SDS011;65006;51.698;-0.292;2023-08-01T04:51:44;11.55;;;2.50;;
22476;SDS011;65006;51.698;-0.292;2023-08-01T04:54:10;13.35;;;2.70;;
22476;SDS011;65006;51.698;-0.292;2023-08-01T04:56:36;6.15;;;2.38;;
22476;SDS011;65006;51.698;-0.292;2023-08-01T04:59:02;11.32;;;2.92;;
22476;SDS011;65006;51.698;-0.292;2023-08-01T05:01:28;12.15;;;2.10;;
22476;SDS011;65006;51.698;-0.292;2023-08-01T05:03:54;8.10;;;1.83;;
22476;SDS011;65006;51.698;-0.292;2023-08-01T05:06:20;7.25;;;2.70;;
22476;SDS011;65006;51.698;-0.292;2023-08-01T05:08:46;9.25;;;2.65;;
22476;SDS011;65006;51.698;-0.292;2023-08-01T05:11:12;4.82;;;1.90;;
22476;SDS011;65006;51.698;-0.292;2023-08-01T05:13:38;6.40;;;1.92;;
22476;SDS011;65006;51.698;-0.292;2023-08-01T05:16:04;7.55;;;2.88;;
22476;SDS011;65006;51.698;-0.292;2023-08-01T05:18:30;5.85;;;1.70;;
22476;SDS011;65006;51.698;-0.292;2023-08-01T05:20:56;7.35;;;1.88;;
22476;SDS011;65006;51.698;-0.292;2023-08-01T05:23:22;9.13;;;2.03;;
22476;SDS011;65006;51.698;-0.292;2023-08-01T05:25:48;7.88;;;2.13;;
22476;SDS011;65006;51.698;-0.292;2023-08-01T05:28:14;12.52;;;2.22;;
22476;SDS011;65006;51.698;-0.292;2023-08-01T05:30:40;7.50;;;1.80;;
22476;SDS011;65006;51.698;-0.292;2023-08-01T05:33:06;7.05;;;1.92;;
22476;SDS011;65006;51.698;-0.292;2023-08-01T05:35:32;6.25;;;2.10;;
22476;SDS011;65006;51.698;-0.292;2023-08-01T05:37:58;9.57;;;1.88;;
22476;SDS011;65006;51.698;-0.292;2023-08-01T05:40:25;13.10;;;2.80;;
22476;SDS011;65006;51.698;-0.292;2023-08-01T05:42:51;10.77;;;2.60;;
22476;SDS011;65006;51.698;-0.292;2023-08-01T05:45:17;5.38;;;2.10;;
22476;SDS011;65006;51.698;-0.292;2023-08-01T05:47:43;7.45;;;2.15;;
22476;SDS011;65006;51.698;-0.292;2023-08-01T05:50:09;5.53;;;1.65;;
22476;SDS011;65006;51.698;-0.292;2023-08-01T05:52:35;9.18;;;1.98;;
22476;SDS011;65006;51.698;-0.292;2023-08-01T05:55:03;9.98;;;2.47;;
22476;SDS011;65006;51.698;-0.292;2023-08-01T05:57:29;4.63;;;2.08;;
22476;SDS011;65006;51.698;-0.292;2023-08-01T05:59:55;10.30;;;1.75;;
22476;SDS011;65006;51.698;-0.292;2023-08-01T06:02:21;5.93;;;1.80;;
22476;SDS011;65006;51.698;-0.292;2023-08-01T06:04:47;6.32;;;1.77;;
22476;SDS011;65006;51.698;-0.292;2023-08-01T06:07:13;8.93;;;1.88;;
22476;SDS011;65006;51.698;-0.292;2023-08-01T06:09:39;8.20;;;2.08;;
22476;SDS011;65006;51.698;-0.292;2023-08-01T06:12:05;8.45;;;1.73;;
22476;SDS011;65006;51.698;-0.292;2023-08-01T06:14:31;7.05;;;1.85;;
22476;SDS011;65006;51.698;-0.292;2023-08-01T06:16:57;3.85;;;1.50;;
22476;SDS011;65006;51.698;-0.292;2023-08-01T06:19:23;5.88;;;1.75;;
22476;SDS011;65006;51.698;-0.292;2023-08-01T06:21:49;2.88;;;1.13;;
22476;SDS011;65006;51.698;-0.292;2023-08-01T06:24:15;5.07;;;1.85;;
22476;SDS011;65006;51.698;-0.292;2023-08-01T06:26:41;5.80;;;1.20;;
22476;SDS011;65006;51.698;-0.292;2023-08-01T06:29:07;6.18;;;1.33;;
22476;SDS011;65006;51.698;-0.292;2023-08-01T06:31:33;6.47;;;1.20;;
22476;SDS011;65006;51.698;-0.292;2023-08-01T06:33:59;3.63;;;1.30;;
22476;SDS011;65006;51.698;-0.292;2023-08-01T06:36:25;5.65;;;1.33;;
22476;SDS011;65006;51.698;-0.292;2023-08-01T06:38:51;4.90;;;1.38;;
22476;SDS011;65006;51.698;-0.292;2023-08-01T06:41:17;6.50;;;1.00;;
22476;SDS011;65006;51.698;-0.292;2023-08-01T06:43:43;3.78;;;1.25;;
22476;SDS011;65006;51.698;-0.292;2023-08-01T06:46:09;3.33;;;0.75;;
22476;SDS011;65006;51.698;-0.292;2023-08-01T06:48:35;4.68;;;0.85;;
22476;SDS011;65006;51.698;-0.292;2023-08-01T06:51:01;3.90;;;0.80;;
22476;SDS011;65006;51.698;-0.292;2023-08-01T06:53:28;6.65;;;0.88;;
22476;SDS011;65006;51.698;-0.292;2023-08-01T06:55:54;3.88;;;1.30;;
22476;SDS011;65006;51.698;-0.292;2023-08-01T06:58:20;5.07;;;0.70;;
22476;SDS011;65006;51.698;-0.292;2023-08-01T07:00:46;2.92;;;0.82;;
22476;SDS011;65006;51.698;-0.292;2023-08-01T07:03:12;6.43;;;0.88;;
22476;SDS011;65006;51.698;-0.292;2023-08-01T07:05:38;6.65;;;1.05;;
22476;SDS011;65006;51.698;-0.292;2023-08-01T07:08:04;4.25;;;0.82;;
22476;SDS011;65006;51.698;-0.292;2023-08-01T07:10:30;1.92;;;0.70;;
22476;SDS011;65006;51.698;-0.292;2023-08-01T07:12:56;4.20;;;0.93;;
22476;SDS011;65006;51.698;-0.292;2023-08-01T07:15:22;5.15;;;0.93;;
22476;SDS011;65006;51.698;-0.292;2023-08-01T07:17:48;2.88;;;0.70;;
22476;SDS011;65006;51.698;-0.292;2023-08-01T07:20:14;2.05;;;0.88;;
22476;SDS011;65006;51.698;-0.292;2023-08-01T07:22:40;3.67;;;0.75;;
22476;SDS011;65006;51.698;-0.292;2023-08-01T07:25:06;4.32;;;0.77;;
22476;SDS011;65006;51.698;-0.292;2023-08-01T07:27:32;5.63;;;1.50;;
22476;SDS011;65006;51.698;-0.292;2023-08-01T07:29:58;4.00;;;1.00;;
22476;SDS011;65006;51.698;-0.292;2023-08-01T07:32:24;2.80;;;0.80;;
22476;SDS011;65006;51.698;-0.292;2023-08-01T07:34:50;3.60;;;0.85;;
22476;SDS011;65006;51.698;-0.292;2023-08-01T07:37:16;3.72;;;0.73;;
22476;SDS011;65006;51.698;-0.292;2023-08-01T07:39:42;3.08;;;0.75;;
22476;SDS011;65006;51.698;-0.292;2023-08-01T07:42:08;2.33;;;0.80;;
22476;SDS011;65006;51.698;-0.292;2023-08-01T07:44:34;4.88;;;0.63;;
22476;SDS011;65006;51.698;-0.292;2023-08-01T07:47:00;5.30;;;1.00;;
22476;SDS011;65006;51.698;-0.292;2023-08-01T07:49:26;3.67;;;0.75;;
22476;SDS011;65006;51.698;-0.292;2023-08-01T07:51:52;7.55;;;1.58;;
22476;SDS011;65006;51.698;-0.292;2023-08-01T07:54:18;2.22;;;0.70;;
22476;SDS011;65006;51.698;-0.292;2023-08-01T07:56:44;3.88;;;0.95;;
22476;SDS011;65006;51.698;-0.292;2023-08-01T07:59:13;3.03;;;1.10;;
22476;SDS011;65006;51.698;-0.292;2023-08-01T08:01:39;4.63;;;0.70;;
22476;SDS011;65006;51.698;-0.292;2023-08-01T08:04:06;3.65;;;0.50;;
22476;SDS011;65006;51.698;-0.292;2023-08-01T08:06:32;4.85;;;0.52;;
22476;SDS011;65006;51.698;-0.292;2023-08-01T08:08:58;5.20;;;0.68;;
22476;SDS011;65006;51.698;-0.292;2023-08-01T08:11:24;1.83;;;0.65;;
22476;SDS011;65006;51.698;-0.292;2023-08-01T08:13:50;2.38;;;0.60;;
22476;SDS011;65006;51.698;-0.292;2023-08-01T08:16:16;1.65;;;0.80;;
22476;SDS011;65006;51.698;-0.292;2023-08-01T08:18:42;2.60;;;0.70;;
22476;SDS011;65006;51.698;-0.292;2023-08-01T08:21:08;1.92;;;0.57;;
22476;SDS011;65006;51.698;-0.292;2023-08-01T08:23:34;4.93;;;1.13;;
22476;SDS011;65006;51.698;-0.292;2023-08-01T08:26:00;2.50;;;0.70;;
22476;SDS011;65006;51.698;-0.292;2023-08-01T08:28:29;2.25;;;0.65;;
22476;SDS011;65006;51.698;-0.292;2023-08-01T08:30:56;2.28;;;0.63;;
22476;SDS011;65006;51.698;-0.292;2023-08-01T08:33:22;2.78;;;0.60;;
22476;SDS011;65006;51.698;-0.292;2023-08-01T08:35:48;3.47;;;0.82;;
22476;SDS011;65006;51.698;-0.292;2023-08-01T08:40:41;1.98;;;0.85;;
22476;SDS011;65006;51.698;-0.292;2023-08-01T08:43:09;5.53;;;0.60;;
22476;SDS011;65006;51.698;-0.292;2023-08-01T08:48:02;3.42;;;0.55;;
22476;SDS011;65006;51.698;-0.292;2023-08-01T08:50:29;1.15;;;0.40;;
22476;SDS011;65006;51.698;-0.292;2023-08-01T08:52:56;4.32;;;0.90;;
22476;SDS011;65006;51.698;-0.292;2023-08-01T08:55:22;3.40;;;0.70;;
22476;SDS011;65006;51.698;-0.292;2023-08-01T08:57:51;3.22;;;0.75;;
22476;SDS011;65006;51.698;-0.292;2023-08-01T09:00:18;3.90;;;0.63;;
22476;SDS011;65006;51.698;-0.292;2023-08-01T09:02:44;3.72;;;0.98;;
22476;SDS011;65006;51.698;-0.292;2023-08-01T09:05:11;4.20;;;0.52;;
22476;SDS011;65006;51.698;-0.292;2023-08-01T09:07:38;1.75;;;0.55;;
22476;SDS011;65006;51.698;-0.292;2023-08-01T09:10:05;2.95;;;0.50;;
22476;SDS011;65006;51.698;-0.292;2023-08-01T09:12:34;3.65;;;0.90;;
22476;SDS011;65006;51.698;-0.292;2023-08-01T09:15:00;5.43;;;0.70;;
22476;SDS011;65006;51.698;-0.292;2023-08-01T09:17:26;3.10;;;0.85;;
22476;SDS011;65006;51.698;-0.292;2023-08-01T09:20:10;2.95;;;0.60;;
22476;SDS011;65006;51.698;-0.292;2023-08-01T09:22:43;1.83;;;0.57;;
22476;SDS011;65006;51.698;-0.292;2023-08-01T09:25:09;2.17;;;0.50;;
22476;SDS011;65006;51.698;-0.292;2023-08-01T09:27:36;2.88;;;0.50;;
22476;SDS011;65006;51.698;-0.292;2023-08-01T09:30:09;3.97;;;0.43;;
22476;SDS011;65006;51.698;-0.292;2023-08-01T09:32:36;3.65;;;0.80;;
22476;SDS011;65006;51.698;-0.292;2023-08-01T09:37:41;1.85;;;0.40;;
22476;SDS011;65006;51.698;-0.292;2023-08-01T09:40:08;33.10;;;1.30;;
22476;SDS011;65006;51.698;-0.292;2023-08-01T09:42:38;4.82;;;0.70;;
22476;SDS011;65006;51.698;-0.292;2023-08-01T09:45:06;2.85;;;0.68;;
22476;SDS011;65006;51.698;-0.292;2023-08-01T09:47:36;1.67;;;0.50;;
22476;SDS011;65006;51.698;-0.292;2023-08-01T09:50:02;1.10;;;0.40;;
22476;SDS011;65006;51.698;-0.292;2023-08-01T09:52:29;3.10;;;0.55;;
22476;SDS011;65006;51.698;-0.292;2023-08-01T09:54:55;2.55;;;0.50;;
22476;SDS011;65006;51.698;-0.292;2023-08-01T09:57:21;4.88;;;0.57;;
22476;SDS011;65006;51.698;-0.292;2023-08-01T09:59:47;2.50;;;0.70;;
22476;SDS011;65006;51.698;-0.292;2023-08-01T10:02:15;5.78;;;0.50;;
22476;SDS011;65006;51.698;-0.292;2023-08-01T10:07:08;5.28;;;0.73;;
22476;SDS011;65006;51.698;-0.292;2023-08-01T10:09:36;2.33;;;0.47;;
22476;SDS011;65006;51.698;-0.292;2023-08-01T10:12:03;4.18;;;0.82;;
22476;SDS011;65006;51.698;-0.292;2023-08-01T10:14:31;1.13;;;0.30;;
22476;SDS011;65006;51.698;-0.292;2023-08-01T10:16:58;2.13;;;0.52;;
22476;SDS011;65006;51.698;-0.292;2023-08-01T10:19:24;4.25;;;0.50;;
22476;SDS011;65006;51.698;-0.292;2023-08-01T10:21:51;5.80;;;0.90;;
22476;SDS011;65006;51.698;-0.292;2023-08-01T10:24:17;1.95;;;0.60;;
22476;SDS011;65006;51.698;-0.292;2023-08-01T10:26:46;3.00;;;0.40;;
22476;SDS011;65006;51.698;-0.292;2023-08-01T10:29:12;2.90;;;1.10;;
22476;SDS011;65006;51.698;-0.292;2023-08-01T10:31:38;3.15;;;0.60;;
22476;SDS011;65006;51.698;-0.292;2023-08-01T10:34:05;3.38;;;0.65;;
22476;SDS011;65006;51.698;-0.292;2023-08-01T10:36:31;0.80;;;0.55;;
22476;SDS011;65006;51.698;-0.292;2023-08-01T10:38:59;3.10;;;0.68;;
22476;SDS011;65006;51.698;-0.292;2023-08-01T10:41:26;3.15;;;0.40;;
22476;SDS011;65006;51.698;-0.292;2023-08-01T10:44:14;2.33;;;0.90;;
22476;SDS011;65006;51.698;-0.292;2023-08-01T10:46:45;2.72;;;0.50;;
22476;SDS011;65006;51.698;-0.292;2023-08-01T10:49:12;1.85;;;0.40;;
22476;SDS011;65006;51.698;-0.292;2023-08-01T10:51:38;3.08;;;0.63;;
22476;SDS011;65006;51.698;-0.292;2023-08-01T10:54:04;2.10;;;0.50;;
22476;SDS011;65006;51.698;-0.292;2023-08-01T10:56:30;5.65;;;0.40;;
22476;SDS011;65006;51.698;-0.292;2023-08-01T10:58:57;4.00;;;0.43;;
22476;SDS011;65006;51.698;-0.292;2023-08-01T11:01:23;3.33;;;0.70;;
22476;SDS011;65006;51.698;-0.292;2023-08-01T11:03:51;1.67;;;0.43;;
22476;SDS011;65006;51.698;-0.292;2023-08-01T11:06:17;2.00;;;0.55;;
22476;SDS011;65006;51.698;-0.292;2023-08-01T11:08:43;4.10;;;0.70;;
22476;SDS011;65006;51.698;-0.292;2023-08-01T11:11:13;6.10;;;0.40;;
22476;SDS011;65006;51.698;-0.292;2023-08-01T11:13:39;4.13;;;0.50;;
22476;SDS011;65006;51.698;-0.292;2023-08-01T11:16:05;3.05;;;0.40;;
22476;SDS011;65006;51.698;-0.292;2023-08-01T11:18:44;1.25;;;0.35;;
22476;SDS011;65006;51.698;-0.292;2023-08-01T11:21:10;2.22;;;0.50;;
22476;SDS011;65006;51.698;-0.292;2023-08-01T11:23:36;6.00;;;0.57;;
22476;SDS011;65006;51.698;-0.292;2023-08-01T11:26:09;2.55;;;0.38;;
22476;SDS011;65006;51.698;-0.292;2023-08-01T11:28:35;2.03;;;0.40;;
22476;SDS011;65006;51.698;-0.292;2023-08-01T11:31:01;3.45;;;0.43;;
22476;SDS011;65006;51.698;-0.292;2023-08-01T11:33:35;2.95;;;0.35;;
22476;SDS011;65006;51.698;-0.292;2023-08-01T11:36:01;2.40;;;0.45;;
22476;SDS011;65006;51.698;-0.292;2023-08-01T11:40:58;2.55;;;0.60;;
22476;SDS011;65006;51.698;-0.292;2023-08-01T11:43:24;3.95;;;0.30;;
22476;SDS011;65006;51.698;-0.292;2023-08-01T11:45:51;1.67;;;0.47;;
22476;SDS011;65006;51.698;-0.292;2023-08-01T11:48:18;3.38;;;0.50;;
22476;SDS011;65006;51.698;-0.292;2023-08-01T11:50:44;1.27;;;0.60;;
22476;SDS011;65006;51.698;-0.292;2023-08-01T11:53:20;2.53;;;0.47;;
22476;SDS011;65006;51.698;-0.292;2023-08-01T11:55:46;2.05;;;0.55;;
22476;SDS011;65006;51.698;-0.292;2023-08-01T12:00:39;4.47;;;0.35;;
22476;SDS011;65006;51.698;-0.292;2023-08-01T12:03:07;0.98;;;0.52;;
22476;SDS011;65006;51.698;-0.292;2023-08-01T12:05:37;2.50;;;0.45;;
22476;SDS011;65006;51.698;-0.292;2023-08-01T12:08:10;2.75;;;0.52;;
22476;SDS011;65006;51.698;-0.292;2023-08-01T12:10:37;3.47;;;0.40;;
22476;SDS011;65006;51.698;-0.292;2023-08-01T12:13:03;1.88;;;0.40;;
22476;SDS011;65006;51.698;-0.292;2023-08-01T12:15:29;1.42;;;0.40;;
22476;SDS011;65006;51.698;-0.292;2023-08-01T12:17:58;2.00;;;0.30;;
22476;SDS011;65006;51.698;-0.292;2023-08-01T12:20:24;0.95;;;0.63;;
22476;SDS011;65006;51.698;-0.292;2023-08-01T12:22:50;1.35;;;0.50;;
22476;SDS011;65006;51.698;-0.292;2023-08-01T12:25:16;1.38;;;0.60;;
22476;SDS011;65006;51.698;-0.292;2023-08-01T12:27:42;0.88;;;0.30;;
22476;SDS011;65006;51.698;-0.292;2023-08-01T12:30:08;2.47;;;0.40;;
22476;SDS011;65006;51.698;-0.292;2023-08-01T12:32:34;2.58;;;0.50;;
22476;SDS011;65006;51.698;-0.292;2023-08-01T12:35:02;2.08;;;0.40;;
22476;SDS011;65006;51.698;-0.292;2023-08-01T12:37:28;2.67;;;0.65;;
22476;SDS011;65006;51.698;-0.292;2023-08-01T12:39:54;0.40;;;0.25;;
22476;SDS011;65006;51.698;-0.292;2023-08-01T12:42:20;1.38;;;0.30;;
22476;SDS011;65006;51.698;-0.292;2023-08-01T12:44:46;3.95;;;0.40;;
22476;SDS011;65006;51.698;-0.292;2023-08-01T12:47:12;0.68;;;0.30;;
22476;SDS011;65006;51.698;-0.292;2023-08-01T12:49:38;2.03;;;1.02;;
22476;SDS011;65006;51.698;-0.292;2023-08-01T12:52:04;0.98;;;0.40;;
22476;SDS011;65006;51.698;-0.292;2023-08-01T12:54:30;1.30;;;0.50;;
22476;SDS011;65006;51.698;-0.292;2023-08-01T12:56:56;4.85;;;0.40;;
22476;SDS011;65006;51.698;-0.292;2023-08-01T12:59:22;3.30;;;0.40;;
22476;SDS011;65006;51.698;-0.292;2023-08-01T13:01:48;0.85;;;0.22;;
22476;SDS011;65006;51.698;-0.292;2023-08-01T13:04:14;1.83;;;0.50;;
22476;SDS011;65006;51.698;-0.292;2023-08-01T13:06:40;0.65;;;0.30;;
22476;SDS011;65006;51.698;-0.292;2023-08-01T13:09:06;8.10;;;0.52;;
22476;SDS011;65006;51.698;-0.292;2023-08-01T13:11:32;1.05;;;0.32;;
22476;SDS011;65006;51.698;-0.292;2023-08-01T13:13:58;2.47;;;0.60;;
22476;SDS011;65006;51.698;-0.292;2023-08-01T13:16:24;1.55;;;0.50;;
22476;SDS011;65006;51.698;-0.292;2023-08-01T13:18:50;5.72;;;0.50;;
22476;SDS011;65006;51.698;-0.292;2023-08-01T13:21:16;0.63;;;0.28;;
22476;SDS011;65006;51.698;-0.292;2023-08-01T13:23:42;1.20;;;0.30;;
22476;SDS011;65006;51.698;-0.292;2023-08-01T13:26:08;1.17;;;0.50;;
22476;SDS011;65006;51.698;-0.292;2023-08-01T13:28:34;3.90;;;0.50;;
22476;SDS011;65006;51.698;-0.292;2023-08-01T13:31:00;1.20;;;0.60;;
22476;SDS011;65006;51.698;-0.292;2023-08-01T13:33:26;2.53;;;0.40;;
22476;SDS011;65006;51.698;-0.292;2023-08-01T13:35:52;2.10;;;0.47;;
22476;SDS011;65006;51.698;-0.292;2023-08-01T13:38:19;2.63;;;0.52;;
22476;SDS011;65006;51.698;-0.292;2023-08-01T13:40:45;0.85;;;0.30;;
22476;SDS011;65006;51.698;-0.292;2023-08-01T13:43:11;0.50;;;0.30;;
22476;SDS011;65006;51.698;-0.292;2023-08-01T13:45:37;0.98;;;0.20;;
22476;SDS011;65006;51.698;-0.292;2023-08-01T13:48:03;2.33;;;0.50;;
22476;SDS011;65006;51.698;-0.292;2023-08-01T13:50:29;3.63;;;0.57;;
22476;SDS011;65006;51.698;-0.292;2023-08-01T13:52:56;4.82;;;0.60;;
22476;SDS011;65006;51.698;-0.292;2023-08-01T13:55:22;0.85;;;0.32;;
22476;SDS011;65006;51.698;-0.292;2023-08-01T13:57:48;2.47;;;0.30;;
22476;SDS011;65006;51.698;-0.292;2023-08-01T14:00:14;2.42;;;0.60;;
22476;SDS011;65006;51.698;-0.292;2023-08-01T14:02:40;1.75;;;0.47;;
22476;SDS011;65006;51.698;-0.292;2023-08-01T14:05:06;2.50;;;0.38;;
22476;SDS011;65006;51.698;-0.292;2023-08-01T14:07:34;2.13;;;0.50;;
22476;SDS011;65006;51.698;-0.292;2023-08-01T14:10:01;2.60;;;0.50;;
22476;SDS011;65006;51.698;-0.292;2023-08-01T14:12:27;1.38;;;0.75;;
22476;SDS011;65006;51.698;-0.292;2023-08-01T14:14:53;7.47;;;0.38;;
22476;SDS011;65006;51.698;-0.292;2023-08-01T14:17:19;3.65;;;0.40;;
22476;SDS011;65006;51.698;-0.292;2023-08-01T14:19:45;1.00;;;0.30;;
22476;SDS011;65006;51.698;-0.292;2023-08-01T14:22:11;2.88;;;0.55;;
22476;SDS011;65006;51.698;-0.292;2023-08-01T14:24:37;0.47;;;0.22;;
22476;SDS011;65006;51.698;-0.292;2023-08-01T14:27:03;2.78;;;0.43;;
22476;SDS011;65006;51.698;-0.292;2023-08-01T14:29:29;2.30;;;0.52;;
22476;SDS011;65006;51.698;-0.292;2023-08-01T14:31:55;0.75;;;0.50;;
22476;SDS011;65006;51.698;-0.292;2023-08-01T14:34:21;10.98;;;0.80;;
22476;SDS011;65006;51.698;-0.292;2023-08-01T14:36:46;1.45;;;0.40;;
22476;SDS011;65006;51.698;-0.292;2023-08-01T14:39:12;2.28;;;0.50;;
22476;SDS011;65006;51.698;-0.292;2023-08-01T14:41:38;5.43;;;0.52;;
22476;SDS011;65006;51.698;-0.292;2023-08-01T14:44:04;0.73;;;0.38;;
22476;SDS011;65006;51.698;-0.292;2023-08-01T14:46:30;2.63;;;0.50;;
22476;SDS011;65006;51.698;-0.292;2023-08-01T14:48:56;5.53;;;0.43;;